Time;durP1;ratioP1;P1;durP2;ratioP2;P2;SDS_P1;SDS_P2;PMS_P1;PMS_P2;Temp;Humidity;BMP_temperature;BMP_pressure;BME280_temperature;BME280_humidity;BME280_pressure;Samples;Min_cycle;Max_cycle;Signal;HPM_P1;HPM_P2
2021/01/14 00:00:08;;;;;;;7.87;1.43;;;1.20;99.90;;;;;;5016309;28;20237;-76
2021/01/14 00:02:33;;;;;;;10.70;1.70;;;1.30;99.90;;;;;;5016720;28;20196;-76
2021/01/14 00:05:00;;;;;;;4.83;1.40;;;1.30;99.90;;;;;;4999962;28;20175;-76
2021/01/14 00:07:26;;;;;;;5.47;1.67;;;1.30;99.90;;;;;;5032269;28;20186;-77
2021/01/14 00:09:51;;;;;;;7.17;1.43;;;1.30;99.90;;;;;;4999856;28;20179;-76
2021/01/14 00:12:17;;;;;;;8.87;1.30;;;1.30;99.90;;;;;;4999526;28;20249;-76
2021/01/14 00:14:42;;;;;;;11.00;1.70;;;1.30;99.90;;;;;;4999800;28;20640;-76
2021/01/14 00:17:08;;;;;;;6.47;1.50;;;1.30;99.90;;;;;;5015959;28;20198;-77
2021/01/14 00:19:33;;;;;;;6.73;1.53;;;1.30;99.90;;;;;;5015920;28;20228;-76
2021/01/14 00:21:59;;;;;;;6.60;1.40;;;1.30;99.90;;;;;;4999561;28;20178;-76
2021/01/14 00:24:25;;;;;;;6.43;1.20;;;1.30;99.90;;;;;;4999558;28;20557;-76
2021/01/14 00:26:50;;;;;;;6.07;1.10;;;1.30;99.90;;;;;;5015895;28;20186;-78
2021/01/14 00:29:16;;;;;;;3.77;1.10;;;1.30;99.90;;;;;;5032514;28;20183;-76
2021/01/14 00:31:41;;;;;;;5.90;1.40;;;1.20;99.90;;;;;;4999364;28;20182;-77
2021/01/14 00:34:07;;;;;;;5.43;1.13;;;1.20;99.90;;;;;;4999553;28;20216;-77
2021/01/14 00:39:24;;;;;;;5.57;1.10;;;1.20;99.90;;;;;;5032486;28;20744;-76
2021/01/14 00:41:50;;;;;;;7.70;1.43;;;1.20;99.90;;;;;;5015627;28;20273;-77
2021/01/14 00:44:15;;;;;;;6.97;1.30;;;1.10;99.90;;;;;;5015821;28;20249;-77
2021/01/14 00:46:41;;;;;;;5.70;1.40;;;1.10;99.90;;;;;;5015817;28;20256;-77
2021/01/14 00:49:06;;;;;;;8.63;1.37;;;1.10;99.90;;;;;;4999328;28;20187;-77
2021/01/14 00:51:35;;;;;;;5.63;1.23;;;1.10;99.90;;;;;;5014770;28;20182;-77
2021/01/14 00:54:01;;;;;;;5.43;1.07;;;1.00;99.90;;;;;;5015479;28;20209;-76
2021/01/14 00:56:39;;;;;;;7.33;1.33;;;1.00;99.90;;;;;;4998947;28;20210;-76
2021/01/14 00:59:05;;;;;;;6.10;1.10;;;1.10;99.90;;;;;;5016788;28;20189;-79
2021/01/14 01:01:31;;;;;;;4.60;1.23;;;1.10;99.90;;;;;;5015899;28;20174;-77
2021/01/14 01:03:56;;;;;;;3.40;0.97;;;1.00;99.90;;;;;;5032223;28;20289;-76
2021/01/14 01:06:22;;;;;;;7.07;1.50;;;1.00;99.90;;;;;;5031547;28;20179;-77
2021/01/14 01:08:48;;;;;;;5.60;1.27;;;1.10;99.90;;;;;;5015078;28;20626;-77
2021/01/14 01:11:14;;;;;;;5.10;1.37;;;1.10;99.90;;;;;;5015341;28;20263;-77
2021/01/14 01:13:40;;;;;;;4.80;1.00;;;1.10;99.90;;;;;;4999328;28;20255;-77
2021/01/14 01:16:05;;;;;;;4.93;1.30;;;1.00;99.90;;;;;;5032354;28;20217;-79
2021/01/14 01:18:33;;;;;;;5.43;1.30;;;1.10;99.90;;;;;;4999645;28;20197;-77
2021/01/14 01:20:59;;;;;;;9.37;1.37;;;1.10;99.90;;;;;;5015583;28;20173;-77
2021/01/14 01:23:25;;;;;;;9.07;1.53;;;1.10;99.90;;;;;;4998984;28;20202;-77
2021/01/14 01:25:51;;;;;;;8.47;1.60;;;1.10;99.90;;;;;;5014908;28;20612;-77
2021/01/14 01:28:16;;;;;;;8.00;1.33;;;1.10;99.90;;;;;;5015075;28;20194;-76
2021/01/14 01:30:42;;;;;;;8.40;1.37;;;1.10;99.90;;;;;;5015011;28;20193;-78
2021/01/14 01:33:08;;;;;;;6.77;1.33;;;1.10;99.90;;;;;;4998531;28;20206;-76
2021/01/14 01:35:34;;;;;;;7.97;1.23;;;1.10;99.90;;;;;;4998394;28;20293;-77
2021/01/14 01:37:59;;;;;;;5.73;1.50;;;1.10;99.90;;;;;;4998137;28;20212;-77
2021/01/14 01:40:25;;;;;;;7.83;1.30;;;1.10;99.90;;;;;;5014866;28;20186;-77
2021/01/14 01:42:57;;;;;;;6.63;1.23;;;1.10;99.90;;;;;;5031312;28;20243;-77
2021/01/14 01:45:23;;;;;;;9.90;1.87;;;1.10;99.90;;;;;;5014895;28;20280;-77
2021/01/14 01:47:49;;;;;;;4.73;1.10;;;1.10;99.90;;;;;;4998143;28;20604;-77
2021/01/14 01:50:15;;;;;;;5.33;1.10;;;1.10;99.90;;;;;;4998487;28;20183;-77
2021/01/14 01:52:40;;;;;;;7.37;1.20;;;1.10;99.90;;;;;;5014527;28;20198;-77
2021/01/14 01:55:06;;;;;;;9.27;1.90;;;1.10;99.90;;;;;;4998317;28;20189;-77
2021/01/14 01:57:32;;;;;;;6.67;1.50;;;1.10;99.90;;;;;;5014442;28;20693;-77
2021/01/14 01:59:58;;;;;;;7.43;1.23;;;1.10;99.90;;;;;;4998122;28;20182;-76
2021/01/14 02:02:27;;;;;;;5.87;1.33;;;1.10;99.90;;;;;;5000613;28;20225;-77
2021/01/14 02:04:53;;;;;;;7.83;1.43;;;1.00;99.90;;;;;;5002230;28;20175;-77
2021/01/14 02:07:41;;;;;;;5.83;1.20;;;1.00;99.90;;;;;;5018505;28;20656;-77
2021/01/14 02:10:09;;;;;;;6.77;1.47;;;1.00;99.90;;;;;;5036056;28;20174;-76
2021/01/14 02:13:00;;;;;;;10.77;1.20;;;1.10;99.90;;;;;;5002047;28;20232;-77
2021/01/14 02:15:26;;;;;;;4.73;1.30;;;1.00;99.90;;;;;;5020194;28;20266;-77
2021/01/14 02:17:52;;;;;;;2.17;1.20;;;1.00;99.90;;;;;;5001759;28;20352;-77
2021/01/14 02:20:18;;;;;;;4.73;1.10;;;1.00;99.90;;;;;;5002162;28;20186;-77
2021/01/14 02:22:43;;;;;;;5.93;1.40;;;1.00;99.90;;;;;;5018075;28;20273;-77
2021/01/14 02:25:19;;;;;;;9.43;1.70;;;0.90;99.90;;;;;;5018103;28;20178;-78
2021/01/14 02:27:45;;;;;;;8.90;1.33;;;0.90;99.90;;;;;;5001705;28;20222;-78
2021/01/14 02:30:11;;;;;;;8.33;1.20;;;0.90;99.90;;;;;;5017518;28;20230;-78
2021/01/14 02:32:37;;;;;;;5.07;1.20;;;0.80;99.90;;;;;;5001074;28;20217;-78
2021/01/14 02:35:03;;;;;;;6.10;1.40;;;0.80;99.90;;;;;;5017476;28;20178;-78
2021/01/14 02:37:29;;;;;;;5.10;1.30;;;0.70;99.90;;;;;;5000833;28;20213;-78
2021/01/14 02:39:54;;;;;;;9.20;1.43;;;0.60;99.90;;;;;;5017387;28;20193;-78
2021/01/14 02:42:20;;;;;;;7.43;1.27;;;0.60;99.90;;;;;;5000750;28;20721;-78
2021/01/14 02:44:45;;;;;;;4.50;1.37;;;0.60;99.90;;;;;;5017118;28;20198;-78
2021/01/14 02:47:11;;;;;;;5.07;1.30;;;0.50;99.90;;;;;;5000974;28;20221;-79
2021/01/14 02:49:39;;;;;;;4.37;1.27;;;0.50;99.90;;;;;;5017204;28;20590;-79
2021/01/14 02:52:05;;;;;;;7.67;1.50;;;0.50;99.90;;;;;;5017072;28;20222;-79
2021/01/14 02:54:30;;;;;;;3.47;1.50;;;0.40;99.90;;;;;;5000959;28;20286;-79
2021/01/14 02:56:56;;;;;;;8.37;1.60;;;0.40;99.90;;;;;;5016851;28;20215;-79
2021/01/14 02:59:22;;;;;;;4.30;1.40;;;0.30;99.90;;;;;;5016858;28;20179;-78
2021/01/14 03:01:48;;;;;;;2.80;1.20;;;0.30;99.90;;;;;;5016893;28;20598;-80
2021/01/14 03:04:13;;;;;;;12.23;1.40;;;0.30;99.90;;;;;;5000531;28;20173;-79
2021/01/14 03:06:39;;;;;;;5.17;1.43;;;0.30;99.90;;;;;;5016618;28;20177;-80
2021/01/14 03:09:04;;;;;;;7.40;1.30;;;0.30;99.90;;;;;;5000649;28;20217;-77
2021/01/14 03:11:31;;;;;;;8.90;1.40;;;0.30;99.90;;;;;;5000248;28;20186;-77
2021/01/14 03:13:57;;;;;;;5.07;1.20;;;0.30;99.90;;;;;;5015519;28;20213;-78
2021/01/14 03:16:23;;;;;;;5.33;1.50;;;0.30;99.90;;;;;;5017132;28;20207;-77
2021/01/14 03:18:48;;;;;;;4.53;1.40;;;0.30;99.90;;;;;;5000882;28;20183;-79
2021/01/14 03:21:24;;;;;;;6.67;1.40;;;0.20;99.90;;;;;;5003573;28;20285;-76
2021/01/14 03:23:49;;;;;;;8.63;1.60;;;0.20;99.90;;;;;;5003898;28;20206;-76
2021/01/14 03:26:15;;;;;;;8.37;1.27;;;0.20;99.90;;;;;;5003782;28;20186;-76
2021/01/14 03:28:41;;;;;;;5.77;1.43;;;0.20;99.90;;;;;;5003563;28;20176;-76
2021/01/14 03:31:06;;;;;;;9.20;1.60;;;0.10;99.90;;;;;;5003294;28;20196;-77
2021/01/14 03:33:32;;;;;;;6.27;1.37;;;0.10;99.90;;;;;;5003379;28;20204;-76
2021/01/14 03:35:58;;;;;;;8.47;1.90;;;0.10;99.90;;;;;;5020088;28;20244;-76
2021/01/14 03:38:24;;;;;;;5.20;1.70;;;0.00;99.90;;;;;;5003878;28;20205;-76
2021/01/14 03:40:50;;;;;;;5.50;1.57;;;0.00;99.90;;;;;;5020001;28;20210;-76
2021/01/14 03:43:16;;;;;;;4.93;1.40;;;-0.10;99.90;;;;;;5035632;28;20198;-76
2021/01/14 03:45:41;;;;;;;7.93;1.70;;;-0.10;99.90;;;;;;5002128;28;20174;-77
2021/01/14 03:48:07;;;;;;;8.93;1.50;;;-0.10;99.90;;;;;;5019645;28;20193;-76
2021/01/14 03:50:33;;;;;;;5.57;1.87;;;-0.20;99.90;;;;;;5003405;28;20194;-79
2021/01/14 03:52:59;;;;;;;5.63;1.50;;;-0.20;99.90;;;;;;4999867;28;20639;-80
2021/01/14 03:55:25;;;;;;;6.33;1.50;;;-0.20;99.90;;;;;;4999519;28;20655;-79
2021/01/14 03:57:50;;;;;;;6.90;1.20;;;-0.30;99.90;;;;;;5031912;28;20696;-79
2021/01/14 04:00:17;;;;;;;5.93;1.23;;;-0.30;99.90;;;;;;5015818;28;20187;-79
2021/01/14 04:02:43;;;;;;;5.10;1.50;;;-0.30;99.90;;;;;;5015743;28;20209;-79
2021/01/14 04:05:09;;;;;;;5.50;1.13;;;-0.30;99.90;;;;;;4999522;28;20192;-79
2021/01/14 04:07:34;;;;;;;4.27;1.20;;;-0.40;99.90;;;;;;5031984;28;20560;-79
2021/01/14 04:10:03;;;;;;;4.90;1.57;;;-0.40;99.90;;;;;;4999072;28;20184;-79
2021/01/14 04:12:29;;;;;;;7.67;1.40;;;-0.30;99.90;;;;;;5016141;28;20300;-80
2021/01/14 04:14:57;;;;;;;6.60;1.37;;;-0.40;99.90;;;;;;4999523;28;20203;-77
2021/01/14 04:17:22;;;;;;;3.90;1.37;;;-0.40;99.90;;;;;;5016202;28;20256;-76
2021/01/14 04:19:48;;;;;;;7.67;1.80;;;-0.50;99.90;;;;;;5034614;28;20182;-76
2021/01/14 04:22:14;;;;;;;8.40;1.63;;;-0.40;99.90;;;;;;5002951;28;20201;-76
2021/01/14 04:24:40;;;;;;;4.80;1.13;;;-0.40;99.90;;;;;;5003244;28;20187;-76
2021/01/14 04:27:06;;;;;;;9.03;1.80;;;-0.50;99.90;;;;;;5017907;28;20191;-76
2021/01/14 04:29:32;;;;;;;4.93;1.57;;;-0.40;99.90;;;;;;5002494;28;20645;-76
2021/01/14 04:31:57;;;;;;;5.07;1.67;;;-0.40;99.90;;;;;;5019239;28;20218;-76
2021/01/14 04:34:23;;;;;;;6.73;1.40;;;-0.40;99.90;;;;;;5003122;28;20185;-76
2021/01/14 04:36:58;;;;;;;5.57;1.40;;;-0.40;99.90;;;;;;4999551;28;20609;-77
2021/01/14 04:39:24;;;;;;;8.10;1.70;;;-0.40;99.90;;;;;;5015733;28;20481;-78
2021/01/14 04:41:53;;;;;;;5.50;1.53;;;-0.40;99.90;;;;;;4998545;28;20279;-78
2021/01/14 04:44:19;;;;;;;9.90;1.63;;;-0.30;99.90;;;;;;5016492;28;20315;-77
2021/01/14 04:46:48;;;;;;;7.00;1.50;;;-0.40;99.90;;;;;;5015478;28;20666;-77
2021/01/14 04:49:17;;;;;;;2.17;1.37;;;-0.40;99.90;;;;;;5000074;28;20730;-77
2021/01/14 04:51:47;;;;;;;6.13;1.70;;;-0.40;99.90;;;;;;4991181;28;20181;-77
2021/01/14 04:54:14;;;;;;;6.83;1.60;;;-0.40;99.90;;;;;;4996310;28;20274;-77
2021/01/14 04:56:39;;;;;;;6.07;1.50;;;-0.40;99.90;;;;;;4996336;28;20205;-77
2021/01/14 04:59:05;;;;;;;4.13;1.40;;;-0.40;99.90;;;;;;4996062;28;20228;-77
2021/01/14 05:01:33;;;;;;;4.27;1.30;;;-0.50;99.90;;;;;;4995966;28;20663;-78
2021/01/14 05:03:59;;;;;;;3.97;1.50;;;-0.50;99.90;;;;;;4995974;28;20593;-76
2021/01/14 05:06:24;;;;;;;5.97;1.87;;;-0.50;99.90;;;;;;4995765;28;20198;-76
2021/01/14 05:09:00;;;;;;;3.20;1.43;;;-0.50;99.90;;;;;;4995749;28;20189;-77
2021/01/14 05:11:26;;;;;;;7.70;1.70;;;-0.40;99.90;;;;;;4996381;28;20189;-77
2021/01/14 05:13:51;;;;;;;7.43;1.87;;;-0.40;99.90;;;;;;4995944;28;20227;-76
2021/01/14 05:16:17;;;;;;;4.13;1.53;;;-0.50;99.90;;;;;;4995511;28;20197;-78
2021/01/14 05:18:42;;;;;;;7.23;1.50;;;-0.50;99.90;;;;;;5011734;28;20206;-77
2021/01/14 05:21:08;;;;;;;7.83;2.17;;;-0.50;99.90;;;;;;4995519;28;20184;-77
2021/01/14 05:23:34;;;;;;;7.87;2.00;;;-0.50;99.90;;;;;;4995510;28;20667;-76
2021/01/14 05:25:59;;;;;;;6.13;1.80;;;-0.50;99.90;;;;;;4995638;28;20264;-77
2021/01/14 05:28:29;;;;;;;7.30;2.23;;;-0.50;99.90;;;;;;4995827;28;20184;-78
2021/01/14 05:31:13;;;;;;;11.40;2.53;;;-0.50;99.90;;;;;;4995474;28;20554;-77
2021/01/14 05:33:38;;;;;;;8.00;2.10;;;-0.60;99.90;;;;;;4995338;28;20216;-77
2021/01/14 05:36:04;;;;;;;7.07;1.60;;;-0.60;99.90;;;;;;4995565;28;20198;-77
2021/01/14 05:38:30;;;;;;;7.17;1.90;;;-0.60;99.90;;;;;;5016532;28;20178;-77
2021/01/14 05:41:19;;;;;;;5.77;1.77;;;-0.70;99.90;;;;;;4999680;28;20588;-77
2021/01/14 05:44:00;;;;;;;8.97;2.57;;;-0.60;99.90;;;;;;5017322;28;20197;-77
2021/01/14 05:46:26;;;;;;;9.67;1.70;;;-0.70;99.90;;;;;;5000292;28;20190;-76
2021/01/14 05:48:53;;;;;;;8.57;2.03;;;-0.60;99.90;;;;;;5001524;28;20183;-76
2021/01/14 05:51:23;;;;;;;10.80;2.70;;;-0.60;99.90;;;;;;5001301;28;20318;-76
2021/01/14 05:53:59;;;;;;;11.30;2.27;;;-0.60;99.90;;;;;;5016217;28;20206;-76
2021/01/14 05:56:42;;;;;;;5.17;2.00;;;-0.70;99.90;;;;;;5017869;28;20683;-75
2021/01/14 05:59:12;;;;;;;4.87;2.03;;;-0.80;99.90;;;;;;5019028;28;20205;-76
2021/01/14 06:01:59;;;;;;;6.67;1.77;;;-0.80;99.90;;;;;;5001848;28;20177;-76
2021/01/14 06:04:28;;;;;;;7.63;2.23;;;-0.80;99.90;;;;;;5034034;28;20612;-75
2021/01/14 06:07:02;;;;;;;6.00;2.00;;;-0.70;99.90;;;;;;5001818;28;20197;-75
2021/01/14 06:09:27;;;;;;;9.13;2.63;;;-0.60;99.90;;;;;;5002827;28;20303;-75
2021/01/14 06:12:09;;;;;;;6.97;2.90;;;-0.50;99.90;;;;;;5017469;28;20692;-75
2021/01/14 06:14:35;;;;;;;11.37;2.83;;;-0.50;99.90;;;;;;5018195;28;20232;-75
2021/01/14 06:17:04;;;;;;;9.80;2.83;;;-0.40;99.90;;;;;;5017297;28;20210;-75
2021/01/14 06:19:30;;;;;;;3.97;2.43;;;-0.30;99.90;;;;;;5033943;28;20186;-75
2021/01/14 06:21:56;;;;;;;9.07;2.57;;;-0.30;99.90;;;;;;5017542;28;20189;-75
2021/01/14 06:24:25;;;;;;;11.57;2.20;;;-0.30;99.90;;;;;;5017545;28;20190;-75
2021/01/14 06:26:54;;;;;;;8.37;2.60;;;-0.20;99.90;;;;;;5033558;28;20189;-75
2021/01/14 06:29:21;;;;;;;12.03;3.57;;;-0.20;99.90;;;;;;5017556;28;20182;-75
2021/01/14 06:31:46;;;;;;;9.77;2.90;;;-0.20;99.90;;;;;;5017588;28;20657;-76
2021/01/14 06:34:14;;;;;;;7.70;2.27;;;-0.10;99.90;;;;;;5017303;28;20720;-75
2021/01/14 06:36:41;;;;;;;6.70;2.60;;;-0.10;99.90;;;;;;5033619;28;20209;-76
2021/01/14 06:39:14;;;;;;;7.27;2.50;;;0.00;99.90;;;;;;5033894;28;20210;-76
2021/01/14 06:41:41;;;;;;;8.43;2.30;;;0.00;99.90;;;;;;5016507;28;20189;-76
2021/01/14 06:44:07;;;;;;;6.03;1.93;;;0.10;99.90;;;;;;5033276;28;20255;-76
2021/01/14 06:46:35;;;;;;;8.27;2.00;;;0.10;99.90;;;;;;5033114;28;20214;-75
2021/01/14 06:49:03;;;;;;;6.30;1.83;;;0.10;99.90;;;;;;5016742;28;20186;-75
2021/01/14 06:51:54;;;;;;;7.07;1.97;;;0.10;99.90;;;;;;5034282;28;20187;-76
2021/01/14 06:54:20;;;;;;;6.50;1.70;;;0.10;99.90;;;;;;5033062;28;20193;-75
2021/01/14 06:56:47;;;;;;;8.33;2.00;;;0.10;99.90;;;;;;5016327;28;20217;-75
2021/01/14 06:59:16;;;;;;;5.13;1.63;;;0.10;99.90;;;;;;5033493;28;20213;-75
2021/01/14 07:01:55;;;;;;;7.40;2.53;;;0.10;99.90;;;;;;5016132;28;20286;-75
2021/01/14 07:05:01;;;;;;;9.17;2.83;;;0.20;99.90;;;;;;5014778;28;20177;-75
2021/01/14 07:07:26;;;;;;;9.07;3.03;;;0.20;99.90;;;;;;5008509;28;20201;-75
2021/01/14 07:10:15;;;;;;;5.00;2.43;;;0.20;99.90;;;;;;5033996;28;20261;-76
2021/01/14 07:12:42;;;;;;;9.33;2.30;;;0.20;99.90;;;;;;5016833;28;20633;-76
2021/01/14 07:15:09;;;;;;;9.60;2.20;;;0.30;99.90;;;;;;5032696;28;20662;-74
2021/01/14 07:17:37;;;;;;;5.77;1.70;;;0.30;99.90;;;;;;5032778;28;20213;-75
2021/01/14 07:20:05;;;;;;;5.27;2.30;;;0.30;99.90;;;;;;5017407;28;20178;-75
2021/01/14 07:22:31;;;;;;;7.63;2.03;;;0.40;99.90;;;;;;5032429;28;20187;-75
2021/01/14 07:24:59;;;;;;;6.97;2.20;;;0.40;99.90;;;;;;5031897;28;20202;-75
2021/01/14 07:27:25;;;;;;;6.40;2.13;;;0.40;99.90;;;;;;5033072;28;20182;-75
2021/01/14 07:29:50;;;;;;;6.60;1.93;;;0.40;99.90;;;;;;5016492;28;20654;-75
2021/01/14 07:32:16;;;;;;;7.33;1.80;;;0.40;99.90;;;;;;5032940;28;20720;-75
2021/01/14 07:34:45;;;;;;;5.03;1.80;;;0.30;99.90;;;;;;5032902;28;20555;-75
2021/01/14 07:37:11;;;;;;;7.23;2.50;;;0.30;99.90;;;;;;5032507;28;20666;-75
2021/01/14 07:39:56;;;;;;;4.23;2.00;;;0.30;99.90;;;;;;5016001;28;20171;-75
2021/01/14 07:42:28;;;;;;;5.90;2.47;;;0.40;99.90;;;;;;5008749;28;20237;-77
2021/01/14 07:44:55;;;;;;;6.17;2.00;;;0.40;99.90;;;;;;5013190;28;20271;-76
2021/01/14 07:47:30;;;;;;;5.77;1.60;;;0.50;99.90;;;;;;4996684;28;20228;-76
2021/01/14 07:49:56;;;;;;;9.63;2.50;;;0.50;99.90;;;;;;5012936;28;20186;-78
2021/01/14 07:52:32;;;;;;;7.17;2.70;;;0.50;99.90;;;;;;4986950;28;20206;-78
2021/01/14 07:54:59;;;;;;;7.80;3.10;;;0.50;99.90;;;;;;5018290;28;20170;-78
2021/01/14 07:57:28;;;;;;;9.53;2.50;;;0.50;99.90;;;;;;5034622;28;20199;-78
2021/01/14 07:59:58;;;;;;;6.87;2.40;;;0.50;99.90;;;;;;4996408;28;20183;-78
2021/01/14 08:02:23;;;;;;;5.13;2.30;;;0.50;99.90;;;;;;5008043;28;20282;-78
2021/01/14 08:04:50;;;;;;;6.47;2.07;;;0.50;99.90;;;;;;5032774;28;20221;-78
2021/01/14 08:07:23;;;;;;;7.57;2.07;;;0.60;99.90;;;;;;5032824;28;20202;-78
2021/01/14 08:09:49;;;;;;;7.00;1.97;;;0.70;99.90;;;;;;5017124;28;20182;-78
2021/01/14 08:12:14;;;;;;;8.87;2.07;;;0.60;99.90;;;;;;5033510;28;20216;-78
2021/01/14 08:14:40;;;;;;;5.50;1.80;;;0.60;99.90;;;;;;5033563;28;20186;-78
2021/01/14 08:17:27;;;;;;;6.90;1.97;;;0.70;99.90;;;;;;5033320;28;20205;-78
2021/01/14 08:19:53;;;;;;;9.43;2.37;;;0.70;99.90;;;;;;5001656;28;20266;-78
2021/01/14 08:22:19;;;;;;;9.73;2.20;;;0.70;99.90;;;;;;5000797;28;20203;-78
2021/01/14 08:24:46;;;;;;;4.90;2.00;;;0.70;99.90;;;;;;5016701;28;20264;-78
2021/01/14 08:27:12;;;;;;;5.50;2.10;;;0.70;99.90;;;;;;5032499;28;20225;-78
2021/01/14 08:30:00;;;;;;;5.87;2.30;;;0.70;99.90;;;;;;5016506;28;20658;-78
2021/01/14 08:32:45;;;;;;;6.23;2.67;;;0.70;99.90;;;;;;5033105;28;20277;-78
2021/01/14 08:35:19;;;;;;;6.13;2.33;;;0.70;99.90;;;;;;5033959;28;20175;-80
2021/01/14 08:38:02;;;;;;;8.47;2.10;;;0.80;99.90;;;;;;5033327;28;20251;-77
2021/01/14 08:40:32;;;;;;;8.37;2.20;;;0.80;99.90;;;;;;5000106;28;20652;-78
2021/01/14 08:43:13;;;;;;;6.50;1.97;;;0.80;99.90;;;;;;5000195;28;20252;-79
2021/01/14 08:45:49;;;;;;;9.03;2.60;;;0.90;99.90;;;;;;4999797;28;20228;-78
2021/01/14 08:48:27;;;;;;;8.20;1.90;;;0.90;99.90;;;;;;5032274;28;20182;-78
2021/01/14 08:50:56;;;;;;;6.37;2.20;;;1.00;99.90;;;;;;4999776;28;20654;-78
2021/01/14 08:53:21;;;;;;;9.43;2.40;;;1.10;99.90;;;;;;5031168;28;20201;-77
2021/01/14 08:56:09;;;;;;;5.83;2.30;;;1.10;99.90;;;;;;5032471;28;20311;-77
2021/01/14 08:58:45;;;;;;;5.17;2.50;;;1.00;99.90;;;;;;5015908;28;20688;-76
2021/01/14 09:01:18;;;;;;;7.40;2.57;;;1.00;99.90;;;;;;5031607;28;20171;-77
2021/01/14 09:03:47;;;;;;;6.60;2.17;;;1.10;99.90;;;;;;4999275;28;20196;-77
2021/01/14 09:06:14;;;;;;;8.73;2.20;;;1.00;99.90;;;;;;4999462;28;20201;-77
2021/01/14 09:08:39;;;;;;;7.93;2.70;;;1.00;99.90;;;;;;4999468;28;20186;-77
2021/01/14 09:11:05;;;;;;;7.83;2.57;;;1.00;99.90;;;;;;5025645;28;20175;-79
2021/01/14 09:13:31;;;;;;;8.43;2.63;;;1.00;99.90;;;;;;4989366;28;20743;-77
2021/01/14 09:15:58;;;;;;;10.17;2.93;;;1.00;99.90;;;;;;4996057;28;20182;-77
2021/01/14 09:18:31;;;;;;;7.50;2.63;;;1.00;99.90;;;;;;4979621;28;20203;-77
2021/01/14 09:20:57;;;;;;;9.50;2.80;;;1.00;99.90;;;;;;4980127;28;20206;-77
2021/01/14 09:23:33;;;;;;;12.13;3.00;;;1.10;99.90;;;;;;4995762;28;20663;-77
2021/01/14 09:25:59;;;;;;;7.00;2.80;;;1.10;99.90;;;;;;4996386;28;20183;-77
2021/01/14 09:28:28;;;;;;;10.77;3.27;;;1.10;99.90;;;;;;4992907;28;20573;-77
2021/01/14 09:30:55;;;;;;;8.43;3.10;;;1.20;99.90;;;;;;5012382;28;20233;-77
2021/01/14 09:33:22;;;;;;;11.37;3.13;;;1.20;99.90;;;;;;5013279;28;20195;-77
2021/01/14 09:36:08;;;;;;;8.10;2.47;;;1.40;99.90;;;;;;5015731;28;20182;-77
2021/01/14 09:38:38;;;;;;;6.47;2.40;;;1.40;99.90;;;;;;5014941;28;20217;-77
2021/01/14 09:41:04;;;;;;;6.37;2.30;;;1.40;99.90;;;;;;5015887;28;20236;-77
2021/01/14 09:43:29;;;;;;;7.00;2.77;;;1.50;99.90;;;;;;4998449;28;20234;-77
2021/01/14 09:45:56;;;;;;;10.07;2.87;;;1.50;99.90;;;;;;5015159;28;20380;-78
2021/01/14 09:48:22;;;;;;;8.60;3.63;;;1.50;99.90;;;;;;5032381;28;20175;-78
2021/01/14 09:50:48;;;;;;;6.57;3.00;;;1.50;99.90;;;;;;5016059;28;20667;-76
2021/01/14 09:53:14;;;;;;;6.70;2.90;;;1.50;99.90;;;;;;4998822;28;20206;-76
2021/01/14 09:55:40;;;;;;;8.90;2.87;;;1.60;99.90;;;;;;5015422;28;20240;-76
2021/01/14 09:58:06;;;;;;;8.53;2.70;;;1.60;99.90;;;;;;4998726;28;20275;-76
2021/01/14 10:00:31;;;;;;;7.30;3.27;;;1.50;99.90;;;;;;5015218;28;20630;-76
2021/01/14 10:03:03;;;;;;;7.43;2.87;;;1.60;99.90;;;;;;5015324;28;20199;-77
2021/01/14 10:05:29;;;;;;;7.43;3.33;;;1.70;99.90;;;;;;4996601;28;20251;-76
2021/01/14 10:07:59;;;;;;;6.07;3.00;;;1.70;99.90;;;;;;4996477;28;20618;-78
2021/01/14 10:10:27;;;;;;;5.40;3.00;;;1.80;99.90;;;;;;4996019;28;20702;-77
2021/01/14 10:12:58;;;;;;;7.93;2.80;;;1.90;99.90;;;;;;4995527;28;20256;-77
2021/01/14 10:15:23;;;;;;;4.63;2.93;;;2.00;99.90;;;;;;5011727;28;20589;-76
2021/01/14 10:17:49;;;;;;;6.83;3.40;;;1.90;99.90;;;;;;5011428;28;20196;-76
2021/01/14 10:20:14;;;;;;;9.50;3.30;;;1.90;99.90;;;;;;5011983;28;20211;-77
2021/01/14 10:22:52;;;;;;;5.80;3.30;;;2.00;99.90;;;;;;4996626;28;20195;-76
2021/01/14 10:25:19;;;;;;;8.20;3.20;;;2.00;99.90;;;;;;4999752;28;20187;-77
2021/01/14 10:28:04;;;;;;;9.57;3.50;;;1.90;99.90;;;;;;4999906;28;20243;-76
2021/01/14 10:30:30;;;;;;;4.40;3.00;;;2.00;99.90;;;;;;5015213;28;20274;-77
2021/01/14 10:33:02;;;;;;;7.77;3.20;;;2.00;99.90;;;;;;5001481;28;20290;-77
2021/01/14 10:35:29;;;;;;;8.37;3.20;;;2.10;99.90;;;;;;5036283;28;20174;-77
2021/01/14 10:38:21;;;;;;;8.03;3.47;;;2.10;99.90;;;;;;5018105;28;20202;-77
2021/01/14 10:40:51;;;;;;;5.63;3.30;;;2.00;99.90;;;;;;5031743;28;20190;-77
2021/01/14 10:43:37;;;;;;;7.30;3.50;;;2.00;99.90;;;;;;5002316;28;20195;-77
2021/01/14 10:46:04;;;;;;;7.07;3.67;;;2.00;99.90;;;;;;5034591;28;20169;-76
2021/01/14 10:48:37;;;;;;;7.87;3.67;;;2.00;99.90;;;;;;5002094;28;20181;-76
2021/01/14 10:51:02;;;;;;;6.27;3.23;;;2.00;99.90;;;;;;5018144;28;20716;-77
2021/01/14 10:53:28;;;;;;;7.33;3.80;;;2.00;99.90;;;;;;5001825;28;20199;-76
2021/01/14 10:56:01;;;;;;;6.03;4.30;;;1.90;99.90;;;;;;5018226;28;20189;-76
2021/01/14 10:58:27;;;;;;;7.87;3.83;;;2.00;99.90;;;;;;5034391;28;20873;-77
2021/01/14 11:00:52;;;;;;;5.37;3.80;;;2.00;99.90;;;;;;5017985;28;20274;-77
2021/01/14 11:03:24;;;;;;;7.70;3.90;;;2.00;99.90;;;;;;5018052;28;20558;-77
2021/01/14 11:06:15;;;;;;;7.57;3.77;;;2.00;99.90;;;;;;5034100;28;20179;-80
2021/01/14 11:09:29;;;;;;;6.27;3.77;;;2.10;99.90;;;;;;5055099;28;21003;-80
2021/01/14 11:11:58;;;;;;;6.97;3.90;;;2.20;99.90;;;;;;5037313;28;20219;-81
2021/01/14 11:14:24;;;;;;;7.77;3.73;;;2.10;99.90;;;;;;5011779;28;20218;-81
2021/01/14 11:16:50;;;;;;;8.37;3.87;;;2.20;99.90;;;;;;5010030;28;20257;-82
2021/01/14 11:19:16;;;;;;;9.13;4.20;;;2.30;99.90;;;;;;5014393;28;20186;-80
2021/01/14 11:21:42;;;;;;;7.70;3.90;;;2.30;99.90;;;;;;5023966;28;20191;-80
2021/01/14 11:24:08;;;;;;;10.93;4.40;;;2.20;99.90;;;;;;5005510;28;20301;-79
2021/01/14 11:26:36;;;;;;;8.63;4.67;;;2.10;99.90;;;;;;5035701;28;20237;-79
2021/01/14 11:29:04;;;;;;;9.90;4.90;;;2.10;99.90;;;;;;5003033;28;20183;-79
2021/01/14 11:31:32;;;;;;;10.60;4.90;;;2.20;99.90;;;;;;4999617;28;20184;-80
2021/01/14 11:34:07;;;;;;;9.40;4.57;;;2.10;99.90;;;;;;5000680;28;20550;-81
2021/01/14 11:36:33;;;;;;;8.63;5.00;;;2.10;99.90;;;;;;5019238;28;20178;-81
2021/01/14 11:38:59;;;;;;;11.23;5.03;;;2.20;99.90;;;;;;5020856;28;20187;-81
2021/01/14 11:41:25;;;;;;;11.40;5.23;;;2.30;99.90;;;;;;5018607;28;20194;-78
2021/01/14 11:43:51;;;;;;;9.50;5.13;;;2.40;99.90;;;;;;5016712;28;20206;-80
2021/01/14 11:46:20;;;;;;;9.07;5.77;;;2.30;99.90;;;;;;5001886;28;20189;-80
2021/01/14 11:48:46;;;;;;;11.93;5.10;;;2.30;99.90;;;;;;5001691;28;20179;-80
2021/01/14 11:51:12;;;;;;;10.00;5.10;;;2.40;99.90;;;;;;5000510;28;20596;-79
2021/01/14 11:53:38;;;;;;;10.00;5.27;;;2.30;99.90;;;;;;5017516;28;20221;-78
2021/01/14 11:56:07;;;;;;;11.40;5.30;;;2.20;99.90;;;;;;5016695;28;20225;-80
2021/01/14 11:58:33;;;;;;;9.90;5.60;;;2.30;99.90;;;;;;5018767;28;20605;-80
2021/01/14 12:01:01;;;;;;;12.20;5.47;;;2.30;99.90;;;;;;5002962;28;20424;-79
2021/01/14 12:03:29;;;;;;;8.73;5.83;;;2.30;99.90;;;;;;5023778;28;20216;-80
2021/01/14 12:05:55;;;;;;;8.33;5.03;;;2.40;99.90;;;;;;5018937;28;20651;-80
2021/01/14 12:08:22;;;;;;;12.13;5.93;;;2.40;99.90;;;;;;5002179;28;20700;-80
2021/01/14 12:10:53;;;;;;;12.67;5.70;;;2.40;99.90;;;;;;5004047;28;20587;-82
2021/01/14 12:13:19;;;;;;;10.00;5.13;;;2.50;99.90;;;;;;5026805;28;20215;-79
2021/01/14 12:15:45;;;;;;;10.27;5.70;;;2.50;99.90;;;;;;5021074;28;20170;-79
2021/01/14 12:18:11;;;;;;;9.60;5.10;;;2.50;99.90;;;;;;5008251;28;20267;-80
2021/01/14 12:20:40;;;;;;;9.97;5.30;;;2.50;99.90;;;;;;5004883;28;20236;-80
2021/01/14 12:23:06;;;;;;;12.43;5.97;;;2.50;99.90;;;;;;5009459;28;20203;-80
2021/01/14 12:25:31;;;;;;;12.33;5.60;;;2.50;99.90;;;;;;5004172;28;20179;-75
2021/01/14 12:27:57;;;;;;;10.43;5.27;;;2.50;99.90;;;;;;5017962;28;20237;-74
2021/01/14 12:30:23;;;;;;;10.07;5.60;;;2.50;99.90;;;;;;5018308;28;20178;-75
2021/01/14 12:32:48;;;;;;;8.87;5.20;;;2.40;99.90;;;;;;5017398;28;20206;-75
2021/01/14 12:35:14;;;;;;;10.40;6.30;;;2.40;99.90;;;;;;5000882;28;20190;-78
2021/01/14 12:37:40;;;;;;;12.50;5.43;;;2.40;99.90;;;;;;5002515;28;20226;-79
2021/01/14 12:40:09;;;;;;;7.77;5.30;;;2.50;99.90;;;;;;5017964;28;20177;-78
2021/01/14 12:42:34;;;;;;;12.90;5.40;;;2.50;99.90;;;;;;5002437;28;20199;-79
2021/01/14 12:45:00;;;;;;;9.73;5.37;;;2.60;99.90;;;;;;5018458;28;20202;-77
2021/01/14 12:47:26;;;;;;;9.43;5.50;;;2.60;99.90;;;;;;5001909;28;20561;-80
2021/01/14 12:49:51;;;;;;;9.83;5.30;;;2.60;99.90;;;;;;5002426;28;20198;-81
2021/01/14 12:52:17;;;;;;;12.37;5.23;;;2.60;99.90;;;;;;5005166;28;20211;-78
2021/01/14 12:54:42;;;;;;;9.30;5.40;;;2.60;99.90;;;;;;5003066;28;20183;-78
2021/01/14 12:57:08;;;;;;;9.43;5.43;;;2.60;99.90;;;;;;5018442;28;20213;-80
2021/01/14 12:59:34;;;;;;;10.97;5.43;;;2.70;99.90;;;;;;5001923;28;20643;-80
2021/01/14 13:02:06;;;;;;;11.83;5.93;;;2.60;99.90;;;;;;5003591;28;20201;-81